Time;durP1;ratioP1;P1;durP2;ratioP2;P2;SDS_P1;SDS_P2;PMS_P1;PMS_P2;Temp;Humidity;BMP_temperature;BMP_pressure;BME280_temperature;BME280_humidity;BME280_pressure;Samples;Min_cycle;Max_cycle;Signal;HPM_P1;HPM_P2
2022/03/21 00:01:29;;;;;;;23.17;8.35;;;;;;;0.75;59.52;99960.31;5105622;28;20044;-94
2022/03/21 00:04:00;;;;;;;15.55;6.68;;;;;;;1.37;59.04;100023.13;5105505;28;20119;-95
2022/03/21 00:06:33;;;;;;;18.55;6.78;;;;;;;1.59;58.45;100061.28;5105231;28;20553;-90
2022/03/21 00:09:08;;;;;;;17.95;6.68;;;;;;;1.62;58.36;100045.91;5104902;28;20085;-91
2022/03/21 00:11:39;;;;;;;18.65;6.88;;;;;;;1.85;57.78;100063.44;5105300;28;20043;-94
2022/03/21 00:14:12;;;;;;;14.73;6.93;;;;;;;1.93;57.48;100046.38;5104902;28;20047;-94
2022/03/21 00:16:43;;;;;;;19.08;7.03;;;;;;;2.27;57.81;100052.88;5105081;28;20063;-94
2022/03/21 00:19:14;;;;;;;9.40;6.03;;;;;;;2.51;57.05;100044.59;5105079;28;20060;-94
2022/03/21 00:21:47;;;;;;;13.45;6.13;;;;;;;2.43;56.27;99983.47;5105137;28;20054;-93
2022/03/21 00:24:18;;;;;;;13.85;5.82;;;;;;;3.12;56.15;100041.88;5104718;28;20056;-93
2022/03/21 00:26:49;;;;;;;16.23;5.50;;;;;;;3.50;55.36;100045.66;5104662;28;20141;-93
2022/03/21 00:29:38;;;;;;;14.88;5.82;;;;;;;3.69;54.88;100024.28;5104708;28;20343;-92
2022/03/21 00:32:27;;;;;;;11.75;4.90;;;;;;;4.08;53.79;100028.00;5104189;28;20232;-93
2022/03/21 00:35:14;;;;;;;11.07;4.72;;;;;;;4.43;52.36;100035.94;5104296;28;20063;-93
2022/03/21 00:37:47;;;;;;;8.73;4.18;;;;;;;4.59;51.45;100031.69;5104216;28;20048;-93
2022/03/21 00:40:20;;;;;;;6.32;3.55;;;;;;;4.51;51.56;100033.41;5103913;28;20107;-92
2022/03/21 00:43:21;;;;;;;7.85;3.92;;;;;;;3.79;50.18;99899.44;5103826;28;20228;-92
2022/03/21 00:46:09;;;;;;;8.32;3.88;;;;;;;5.00;49.68;100023.22;5103900;28;20248;-92
2022/03/21 00:49:11;;;;;;;;;;;;;;;;;;;;;
2022/03/21 00:52:15;;;;;;;;;;;;;;;;;;;;;
2022/03/21 00:55:07;;;;;;;5.65;3.22;;;;;;;4.24;49.09;99936.72;5049470;28;20047;-92
2022/03/21 00:57:42;;;;;;;8.20;3.38;;;;;;;3.97;49.25;99921.06;5103813;28;20058;-91
2022/03/21 01:00:19;;;;;;;5.90;2.97;;;;;;;4.33;49.51;100004.00;5103921;28;20052;-92
2022/03/21 01:02:50;;;;;;;9.57;3.72;;;;;;;4.40;48.78;99993.69;5103337;28;20074;-92
2022/03/21 01:05:22;;;;;;;6.30;3.20;;;;;;;4.56;49.26;99990.28;5083163;28;20050;-91
2022/03/21 01:07:54;;;;;;;5.20;2.35;;;;;;;4.81;47.28;100013.66;5096082;28;20048;-91
2022/03/21 01:10:36;;;;;;;4.57;2.53;;;;;;;5.02;47.61;100005.06;5103404;28;20123;-91
2022/03/21 01:13:09;;;;;;;6.35;2.85;;;;;;;5.16;46.06;99962.78;5103224;28;20133;-91
2022/03/21 01:15:49;;;;;;;6.75;3.50;;;;;;;4.84;45.57;99868.69;5103254;28;20107;-91
2022/03/21 01:18:22;;;;;;;4.97;2.83;;;;;;;5.61;45.22;99950.69;5103082;28;20051;-91
2022/03/21 01:20:56;;;;;;;4.43;2.83;;;;;;;5.92;44.37;99976.59;5103058;28;20415;-91
2022/03/21 01:23:26;;;;;;;10.50;4.10;;;;;;;6.09;44.16;99983.47;5102919;28;20110;-91
2022/03/21 01:25:59;;;;;;;7.35;3.13;;;;;;;5.97;44.67;99985.25;5103064;28;20044;-90
2022/03/21 01:28:30;;;;;;;4.13;2.10;;;;;;;5.65;43.69;99951.56;5103080;28;20111;-90
2022/03/21 01:31:00;;;;;;;3.92;2.20;;;;;;;5.75;45.31;99978.34;5103051;28;20054;-90
2022/03/21 01:33:42;;;;;;;;;;;;;;;;;;;;;
2022/03/21 01:36:19;;;;;;;4.72;2.28;;;;;;;5.51;44.35;99964.53;5102897;28;20083;-92
2022/03/21 01:38:49;;;;;;;3.33;2.60;;;;;;;4.98;44.39;99913.59;5099235;28;20218;-90
2022/03/21 01:41:22;;;;;;;4.72;2.88;;;;;;;4.98;44.34;99921.34;5102112;28;20043;-90
2022/03/21 01:44:03;;;;;;;6.35;2.67;;;;;;;4.94;44.18;99919.63;5102417;28;20089;-91
2022/03/21 01:46:35;;;;;;;5.13;2.70;;;;;;;4.97;42.41;99963.66;5102428;28;20056;-84
2022/03/21 01:49:07;;;;;;;5.32;2.53;;;;;;;4.94;42.79;99955.88;5102534;28;20047;-82
2022/03/21 01:51:39;;;;;;;4.55;2.30;;;;;;;5.23;43.20;99957.63;5093382;28;20045;-83
2022/03/21 01:57:00;;;;;;;5.55;3.28;;;;;;;5.10;43.04;99952.44;5097068;28;20040;-84
2022/03/21 01:59:31;;;;;;;5.25;2.70;;;;;;;5.03;43.87;99955.88;5101011;28;20050;-83
2022/03/21 02:05:50;;;;;;;5.50;2.60;;;;;;;4.67;43.41;99918.75;5079882;28;20107;-83
2022/03/21 02:08:21;;;;;;;5.82;2.50;;;;;;;4.88;43.79;99943.78;5065993;28;20071;-83
2022/03/21 02:10:52;;;;;;;4.03;2.70;;;;;;;4.87;44.03;99948.97;5097502;28;20071;-83
2022/03/21 02:13:25;;;;;;;6.25;3.20;;;;;;;4.67;44.42;99939.44;5097482;28;20047;-82
2022/03/21 02:15:57;;;;;;;6.25;3.08;;;;;;;4.65;44.71;99933.41;5098220;28;20052;-82
2022/03/21 02:18:29;;;;;;;4.68;2.75;;;;;;;4.66;45.20;99940.28;5100157;28;20044;-83
2022/03/21 02:21:04;;;;;;;5.32;2.63;;;;;;;4.29;45.21;99872.94;5093749;28;20103;-84
2022/03/21 02:23:46;;;;;;;4.28;2.60;;;;;;;4.39;46.45;99866.03;5081849;28;20386;-84
2022/03/21 02:26:20;;;;;;;8.00;2.67;;;;;;;5.22;46.00;99909.25;5081839;28;20288;-88
2022/03/21 02:29:06;;;;;;;4.80;2.40;;;;;;;5.63;43.87;99928.22;5100174;28;20052;-88
2022/03/21 02:31:52;;;;;;;7.13;2.83;;;;;;;5.83;43.65;99904.00;5096684;28;20341;-88
2022/03/21 02:34:27;;;;;;;4.63;3.17;;;;;;;5.88;43.10;99821.88;5089307;28;20072;-88
2022/03/21 02:37:12;;;;;;;;;;;;;;;;;;;;;
2022/03/21 02:40:20;;;;;;;7.68;2.80;;;;;;;5.98;41.45;99765.66;5086523;28;20052;-88
2022/03/21 02:42:55;;;;;;;5.40;2.20;;;;;;;6.36;41.40;99895.16;5085935;28;20045;-86
2022/03/21 02:45:28;;;;;;;4.55;2.30;;;;;;;5.94;40.81;99881.53;5093102;28;20115;-87
2022/03/21 02:47:59;;;;;;;5.38;2.30;;;;;;;6.26;41.52;99903.88;5087093;28;20045;-87
2022/03/21 02:50:36;;;;;;;5.63;2.35;;;;;;;6.33;40.63;99897.78;5092915;28;20067;-86
2022/03/21 02:53:08;;;;;;;4.32;1.85;;;;;;;6.42;41.35;99889.97;5098195;28;20052;-86
2022/03/21 02:55:40;;;;;;;5.93;1.83;;;;;;;6.07;39.15;99876.31;5094583;28;20048;-84
2022/03/21 02:58:14;;;;;;;5.13;2.10;;;;;;;5.91;39.51;99891.00;5089097;28;20074;-83
2022/03/21 03:00:47;;;;;;;4.18;2.38;;;;;;;6.01;38.90;99893.59;5096426;28;20048;-86
2022/03/21 03:03:18;;;;;;;1.50;1.10;;;;;;;5.46;36.03;99888.53;5081846;28;20344;-85
2022/03/21 03:05:48;;;;;;;4.40;1.67;;;;;;;4.49;37.56;99891.09;5081667;28;20245;-84
2022/03/21 03:08:24;;;;;;;1.80;1.10;;;;;;;3.29;36.83;99889.66;5093953;28;20214;-83
2022/03/21 03:10:55;;;;;;;1.65;1.10;;;;;;;2.39;38.48;99897.44;5093478;28;20048;-83
2022/03/21 03:13:27;;;;;;;3.03;1.23;;;;;;;2.04;39.36;99879.88;5094955;28;20108;-84
2022/03/21 03:15:58;;;;;;;1.83;1.15;;;;;;;1.94;39.66;99893.50;5084243;28;20063;-86
2022/03/21 03:18:29;;;;;;;2.17;1.35;;;;;;;2.24;41.80;99881.81;5086789;28;20051;-84
2022/03/21 03:21:01;;;;;;;3.38;1.60;;;;;;;2.57;39.30;99877.03;5087441;28;20103;-83
2022/03/21 03:23:33;;;;;;;2.67;1.10;;;;;;;2.15;39.02;99826.75;5093337;28;20047;-83
2022/03/21 03:26:06;;;;;;;3.33;1.35;;;;;;;1.93;38.37;99819.63;5093479;28;20040;-82
2022/03/21 03:28:41;;;;;;;3.50;1.30;;;;;;;2.10;37.49;99832.72;5092216;28;20609;-83
2022/03/21 03:31:15;;;;;;;3.00;1.27;;;;;;;2.38;38.11;99875.09;5102590;28;20058;-83
2022/03/21 03:33:50;;;;;;;1.33;1.17;;;;;;;2.24;35.31;99866.34;5100932;28;20051;-83
2022/03/21 03:36:21;;;;;;;1.65;1.20;;;;;;;2.12;37.98;99837.03;5096697;28;20766;-83
2022/03/21 03:38:52;;;;;;;1.27;1.17;;;;;;;2.86;35.99;99853.19;5099425;28;20048;-83
2022/03/21 03:41:23;;;;;;;3.50;1.50;;;;;;;2.99;36.30;99849.84;5095495;28;20048;-83
2022/03/21 03:43:56;;;;;;;2.92;1.20;;;;;;;3.01;35.41;99806.84;5100405;28;20240;-83
2022/03/21 03:46:30;;;;;;;2.15;1.30;;;;;;;3.40;37.67;99836.38;5097697;28;20090;-83
2022/03/21 03:49:01;;;;;;;4.30;1.33;;;;;;;3.51;35.32;99863.97;5098378;28;20050;-83
2022/03/21 03:51:34;;;;;;;3.72;1.20;;;;;;;2.68;36.41;99837.56;5087115;28;20106;-83
2022/03/21 03:54:07;;;;;;;6.10;1.20;;;;;;;2.42;37.26;99855.34;5088720;28;20047;-83
2022/03/21 03:56:38;;;;;;;1.35;1.08;;;;;;;2.28;38.35;99842.34;5092339;28;20067;-85
2022/03/21 04:10:39;;;;;;;4.90;1.45;;;;;;;1.51;39.35;99862.03;4846438;29;20137;-88
2022/03/21 04:13:45;;;;;;;;;;;;;;;;;;;;;
2022/03/21 04:16:44;;;;;;;2.63;1.30;;;;;;;1.19;40.34;99865.00;4936528;28;20142;-83
2022/03/21 04:19:14;;;;;;;3.40;1.40;;;;;;;0.73;40.28;99796.53;5001324;28;20085;-85
2022/03/21 04:21:45;;;;;;;2.28;1.40;;;;;;;0.64;39.52;99762.13;4999499;28;20109;-87
2022/03/21 04:24:16;;;;;;;3.15;1.40;;;;;;;1.27;40.08;99858.28;5001363;28;20262;-86
2022/03/21 04:26:49;;;;;;;3.00;1.60;;;;;;;1.30;39.80;99860.03;5001802;28;20100;-87
2022/03/21 04:29:20;;;;;;;1.45;1.20;;;;;;;0.99;40.18;99851.81;5080909;28;20353;-85
2022/03/21 04:31:56;;;;;;;3.08;1.27;;;;;;;0.71;41.90;99860.81;5091976;28;20071;-90
2022/03/21 04:34:27;;;;;;;2.08;1.40;;;;;;;0.96;42.64;99876.63;5094572;28;20124;-88
2022/03/21 04:36:58;;;;;;;2.35;1.52;;;;;;;1.13;43.12;99875.19;5085142;28;20079;-85
2022/03/21 04:39:29;;;;;;;2.35;1.50;;;;;;;1.46;42.37;99873.97;5091593;28;20115;-83
2022/03/21 04:42:02;;;;;;;2.88;1.42;;;;;;;1.63;41.20;99893.09;5096044;28;20050;-88
2022/03/21 04:44:48;;;;;;;3.42;1.60;;;;;;;1.63;41.75;99877.63;5097880;28;20342;-87
2022/03/21 04:47:29;;;;;;;1.90;1.30;;;;;;;0.18;41.79;99704.00;5092148;28;20048;-89
2022/03/21 04:50:18;;;;;;;6.45;1.90;;;;;;;0.84;42.13;99841.28;5095171;28;20041;-89
2022/03/21 04:53:00;;;;;;;5.57;1.75;;;;;;;0.61;41.93;99761.22;5084089;28;20048;-89
2022/03/21 04:56:10;;;;;;;2.65;1.40;;;;;;;0.72;41.58;99703.09;5100236;28;20052;-89
2022/03/21 04:59:18;;;;;;;2.55;2.20;;;;;;;1.75;41.13;99796.22;5071873;28;20086;-89
2022/03/21 05:01:57;;;;;;;9.48;3.42;;;;;;;1.41;41.35;99705.69;5090715;28;20052;-89
2022/03/21 05:04:37;;;;;;;3.15;2.15;;;;;;;1.34;40.99;99688.44;5095220;28;20055;-84
2022/03/21 05:07:14;;;;;;;2.88;1.70;;;;;;;2.55;41.38;99889.03;5091833;28;20054;-86
2022/03/21 05:09:45;;;;;;;2.75;1.63;;;;;;;2.59;39.86;99890.78;5094650;28;20051;-84
2022/03/21 05:12:16;;;;;;;2.55;1.88;;;;;;;2.64;41.28;99895.13;5093895;28;20055;-85
2022/03/21 05:14:52;;;;;;;3.95;2.00;;;;;;;2.62;42.29;99894.25;5092065;28;20064;-84
2022/03/21 05:17:23;;;;;;;3.00;1.98;;;;;;;2.53;42.67;99901.03;5101989;28;20055;-84
2022/03/21 05:19:56;;;;;;;2.75;1.80;;;;;;;2.33;43.95;99907.72;5093609;28;20099;-84
2022/03/21 05:22:29;;;;;;;9.02;2.70;;;;;;;2.00;45.96;99909.03;5101083;28;20051;-84
2022/03/21 05:36:14;;;;;;;10.95;4.13;;;;;;;1.82;47.95;99863.31;5099472;28;20055;-81
2022/03/21 05:42:25;;;;;;;5.57;2.90;;;;;;;2.39;43.29;99918.06;4950020;28;20078;-84
2022/03/21 05:44:55;;;;;;;5.50;2.10;;;;;;;2.01;42.80;99903.03;5042955;28;20048;-84
2022/03/21 05:47:26;;;;;;;2.58;1.80;;;;;;;1.02;43.30;99815.88;5085876;28;20052;-83
2022/03/21 05:49:57;;;;;;;2.13;1.60;;;;;;;1.53;43.86;99921.28;5099712;28;20108;-82
2022/03/21 05:52:29;;;;;;;3.15;1.85;;;;;;;1.16;42.01;99884.69;5097368;28;20056;-83
2022/03/21 05:55:00;;;;;;;4.22;1.63;;;;;;;1.44;43.86;99937.44;5084191;28;20080;-82
2022/03/21 05:57:31;;;;;;;4.07;1.80;;;;;;;1.44;45.64;99947.75;5085634;28;20052;-83
2022/03/21 06:02:48;;;;;;;2.30;1.70;;;;;;;0.76;46.99;99948.31;5094052;28;20046;-82
2022/03/21 06:05:20;;;;;;;4.82;1.98;;;;;;;0.81;47.72;99960.41;5089155;28;20050;-83
2022/03/21 06:07:54;;;;;;;9.90;2.72;;;;;;;0.30;48.14;99863.50;5093348;28;20047;-82
2022/03/21 06:10:25;;;;;;;3.83;1.98;;;;;;;0.64;48.92;99954.09;5100328;28;20050;-83
2022/03/21 06:12:55;;;;;;;8.70;1.85;;;;;;;0.60;51.09;99989.19;5102110;28;20046;-83
2022/03/21 06:15:29;;;;;;;5.07;2.13;;;;;;;0.28;57.21;99992.81;5102061;28;20387;-83
2022/03/21 06:18:02;;;;;;;4.97;2.67;;;;;;;0.01;60.21;99993.09;5100682;28;20207;-82
2022/03/21 06:20:33;;;;;;;6.93;3.28;;;;;;;0.08;61.90;99995.81;5101236;28;20115;-83
2022/03/21 06:23:05;;;;;;;5.07;2.78;;;;;;;0.45;61.81;99985.44;5096428;28;20079;-84
2022/03/21 06:25:38;;;;;;;6.13;3.08;;;;;;;0.96;60.93;99989.84;5089556;28;20052;-81
2022/03/21 06:28:09;;;;;;;6.95;3.35;;;;;;;1.41;60.50;99994.03;5098448;28;20059;-81
2022/03/21 06:30:39;;;;;;;6.38;3.17;;;;;;;1.77;59.57;99985.13;5095415;28;20076;-79
2022/03/21 06:33:11;;;;;;;5.65;2.78;;;;;;;2.10;57.99;99995.94;5092405;28;20037;-81
2022/03/21 06:35:43;;;;;;;5.78;2.80;;;;;;;2.19;56.52;99982.28;5097930;28;20093;-82
2022/03/21 06:38:15;;;;;;;10.82;3.47;;;;;;;2.18;54.59;99990.03;5097808;28;20076;-83
2022/03/21 06:40:46;;;;;;;8.40;2.55;;;;;;;2.14;54.23;100000.28;5105728;28;20066;-80
2022/03/21 06:43:17;;;;;;;7.28;2.20;;;;;;;2.07;50.96;100003.63;5100382;28;20048;-80
2022/03/21 06:45:50;;;;;;;3.50;1.95;;;;;;;1.73;48.98;99991.97;5105355;28;20044;-82
2022/03/21 06:48:22;;;;;;;3.13;1.83;;;;;;;1.54;49.45;99990.81;5114129;28;20056;-83
2022/03/21 06:50:55;;;;;;;6.30;2.40;;;;;;;1.14;50.00;99964.41;5108746;28;20028;-83
2022/03/21 06:53:27;;;;;;;7.18;2.55;;;;;;;1.20;50.44;99995.41;5120001;28;20035;-83
2022/03/21 06:55:58;;;;;;;3.80;2.38;;;;;;;0.93;50.05;99994.94;5120928;28;20103;-82
2022/03/21 06:58:30;;;;;;;6.93;2.28;;;;;;;0.64;45.42;99997.81;5109467;28;20068;-83
2022/03/21 07:01:00;;;;;;;4.85;2.00;;;;;;;0.43;44.51;99993.97;5107573;28;20092;-81
2022/03/21 07:03:32;;;;;;;4.07;2.00;;;;;;;0.43;44.61;99999.13;5105340;28;20674;-82
2022/03/21 07:06:03;;;;;;;7.40;1.95;;;;;;;0.30;43.05;99966.31;5107050;28;20056;-83
2022/03/21 07:08:35;;;;;;;3.75;1.70;;;;;;;0.48;42.34;99995.78;5096447;28;20045;-83
2022/03/21 07:11:12;;;;;;;7.00;2.25;;;;;;;0.08;39.79;99989.81;5091448;28;20063;-85
2022/03/21 07:13:42;;;;;;;8.07;2.13;;;;;;;-0.01;41.64;100011.03;5099475;28;20055;-83
2022/03/21 07:16:16;;;;;;;5.18;2.13;;;;;;;-0.96;40.64;99901.88;5096842;28;20104;-83
2022/03/21 07:18:47;;;;;;;3.67;2.20;;;;;;;-0.55;42.91;100004.66;5096144;28;20049;-82
2022/03/21 07:21:19;;;;;;;6.10;1.63;;;;;;;-0.68;42.74;99979.50;5101597;28;20194;-82
2022/03/21 07:23:52;;;;;;;5.50;1.98;;;;;;;-0.72;42.65;99998.25;5082859;28;20044;-82
2022/03/21 07:26:23;;;;;;;3.75;1.83;;;;;;;-1.00;40.54;99997.56;5085575;28;20044;-89
2022/03/21 07:28:53;;;;;;;4.03;1.88;;;;;;;-1.53;41.21;99976.47;5098561;28;20075;-87
2022/03/21 07:31:34;;;;;;;4.20;1.85;;;;;;;-1.18;43.68;100003.03;5100924;28;20039;-83
2022/03/21 07:34:05;;;;;;;6.38;1.75;;;;;;;-0.96;42.89;100012.19;5096151;28;20120;-83
2022/03/21 07:36:36;;;;;;;8.30;2.90;;;;;;;-0.82;45.06;100006.53;5104832;28;20083;-86
2022/03/21 07:39:08;;;;;;;5.47;1.85;;;;;;;-0.88;42.38;100013.22;5102581;28;20279;-88
2022/03/21 07:41:39;;;;;;;4.85;2.17;;;;;;;-1.08;43.10;100024.66;5097650;28;20111;-83
2022/03/21 07:44:11;;;;;;;6.63;2.17;;;;;;;-1.18;43.95;100013.28;5088322;28;20052;-83
2022/03/21 07:49:29;;;;;;;4.75;2.63;;;;;;;-1.00;46.04;100033.47;5089313;28;20059;-82
2022/03/21 07:52:00;;;;;;;6.35;2.45;;;;;;;-1.11;45.09;100035.72;5092737;28;20094;-80
2022/03/21 07:54:32;;;;;;;6.05;2.15;;;;;;;-1.37;46.76;100022.19;5099507;28;20044;-80
2022/03/21 07:57:04;;;;;;;3.35;2.20;;;;;;;-1.53;47.71;100035.41;5085240;28;20112;-83
2022/03/21 07:59:34;;;;;;;6.45;2.13;;;;;;;-1.79;48.14;100025.28;5085447;28;20066;-81
2022/03/21 08:02:06;;;;;;;4.50;2.55;;;;;;;-1.74;48.99;100051.88;5085468;28;20071;-81
2022/03/21 08:04:36;;;;;;;6.78;2.10;;;;;;;-1.82;48.48;100058.47;5097785;28;20044;-83
2022/03/21 08:07:07;;;;;;;7.03;2.50;;;;;;;-1.86;49.07;100061.75;5092259;28;20075;-83
2022/03/21 08:09:39;;;;;;;4.97;2.03;;;;;;;-1.90;49.27;100054.78;5102098;28;20112;-83
2022/03/21 08:12:11;;;;;;;8.60;2.50;;;;;;;-1.92;49.94;100061.59;5103531;28;20095;-83
2022/03/21 08:14:42;;;;;;;15.27;5.28;;;;;;;-1.98;49.42;100056.25;5102308;28;20056;-82
2022/03/21 08:17:12;;;;;;;6.97;3.53;;;;;;;-2.07;48.82;100055.97;5105055;28;20060;-83
2022/03/21 08:19:43;;;;;;;9.07;2.40;;;;;;;-2.21;49.21;100053.00;5102244;28;20536;-82
2022/03/21 08:22:15;;;;;;;6.35;2.83;;;;;;;-2.28;50.11;100057.03;5096279;28;20079;-82
2022/03/21 08:24:52;;;;;;;5.38;2.72;;;;;;;-2.37;49.42;100056.78;5105509;28;20055;-83
2022/03/21 08:27:23;;;;;;;5.00;2.70;;;;;;;-2.45;50.49;100053.06;5091342;28;20104;-82
2022/03/21 08:29:54;;;;;;;9.38;2.60;;;;;;;-2.46;51.48;100061.56;5110397;28;20028;-87
2022/03/21 08:32:24;;;;;;;7.00;2.60;;;;;;;-2.58;51.37;100045.81;5109466;28;20055;-83
2022/03/21 08:34:55;;;;;;;15.23;3.78;;;;;;;-2.56;52.01;100064.66;5118621;28;20028;-83
2022/03/21 08:37:26;;;;;;;37.83;12.05;;;;;;;-2.57;53.10;100057.78;5108654;28;20059;-79
2022/03/21 08:39:58;;;;;;;55.65;19.60;;;;;;;-2.63;52.89;100054.19;5109740;28;20038;-82
2022/03/21 08:42:29;;;;;;;25.13;9.35;;;;;;;-3.21;53.44;99965.34;5112951;28;20043;-83
2022/03/21 08:45:04;;;;;;;73.25;25.55;;;;;;;-2.74;52.89;100059.81;5109447;28;20039;-83
2022/03/21 08:47:35;;;;;;;31.45;13.35;;;;;;;-2.81;52.51;100063.81;5111069;28;20116;-83
2022/03/21 08:50:09;;;;;;;12.38;5.43;;;;;;;-3.06;53.14;100032.31;5113757;28;20054;-83
2022/03/21 08:52:40;;;;;;;8.27;3.17;;;;;;;-2.81;52.82;100068.94;5113879;28;20046;-85
2022/03/21 08:55:13;;;;;;;12.48;6.10;;;;;;;-2.96;52.51;100063.31;5100394;28;20084;-85
2022/03/21 08:57:43;;;;;;;75.25;25.52;;;;;;;-2.93;52.12;100073.63;5108748;28;20032;-85
2022/03/21 09:00:15;;;;;;;23.60;11.02;;;;;;;-3.00;52.39;100076.78;5103375;28;20080;-83
2022/03/21 09:02:48;;;;;;;9.05;3.75;;;;;;;-3.04;52.98;100080.94;5104225;28;20558;-85
2022/03/21 09:05:20;;;;;;;11.93;4.72;;;;;;;-3.05;53.23;100090.25;5097968;28;20363;-82
2022/03/21 09:07:51;;;;;;;15.85;7.22;;;;;;;-3.03;53.05;100092.88;5084185;28;20386;-84
2022/03/21 09:10:23;;;;;;;25.00;9.15;;;;;;;-3.10;53.29;100086.69;5099281;28;20062;-88
2022/03/21 09:12:55;;;;;;;34.25;14.70;;;;;;;-3.11;53.96;100082.38;5093089;28;20103;-82
2022/03/21 09:15:26;;;;;;;27.65;10.55;;;;;;;-3.26;54.34;100079.28;5091732;28;20087;-83
2022/03/21 09:18:00;;;;;;;16.80;7.13;;;;;;;-3.33;53.58;100082.44;5082581;28;20394;-82
2022/03/21 09:20:31;;;;;;;26.75;9.32;;;;;;;-3.51;53.59;100069.88;5087920;28;20083;-81
2022/03/21 09:23:01;;;;;;;13.13;5.53;;;;;;;-3.51;54.46;100080.94;5083254;28;20071;-79
2022/03/21 09:25:34;;;;;;;17.63;8.20;;;;;;;-3.53;54.29;100091.91;5095066;28;20079;-80
2022/03/21 09:28:05;;;;;;;19.73;6.60;;;;;;;-3.62;54.40;100095.00;5098338;28;20380;-81
2022/03/21 09:30:37;;;;;;;15.73;6.22;;;;;;;-3.71;54.48;100102.31;5096405;28;20103;-87
2022/03/21 09:33:07;;;;;;;19.48;9.55;;;;;;;-3.79;55.93;100096.06;5093985;28;20066;-86
2022/03/21 09:35:38;;;;;;;11.32;5.28;;;;;;;-3.98;55.72;100095.31;5101296;28;20366;-85
2022/03/21 09:38:09;;;;;;;8.10;3.15;;;;;;;-3.94;55.13;100114.19;5095172;28;20048;-85
2022/03/21 09:40:43;;;;;;;6.72;2.97;;;;;;;-4.14;55.34;100083.66;5101026;28;20270;-84
2022/03/21 09:43:14;;;;;;;7.63;3.60;;;;;;;-4.05;55.67;100108.66;5089235;28;20218;-85
2022/03/21 09:45:46;;;;;;;6.38;3.53;;;;;;;-4.12;54.99;100116.88;5095513;28;20066;-83
2022/03/21 09:48:19;;;;;;;17.17;5.65;;;;;;;-4.18;55.22;100111.53;5099866;28;20048;-86
2022/03/21 09:50:52;;;;;;;17.27;6.28;;;;;;;-4.15;55.56;100122.72;5087563;28;20063;-87
2022/03/21 09:53:26;;;;;;;10.07;4.10;;;;;;;-4.17;55.63;100120.91;5081146;28;20111;-86
2022/03/21 09:56:00;;;;;;;61.22;6.22;;;;;;;-4.22;56.41;100132.63;5095552;28;20051;-85
2022/03/21 09:58:31;;;;;;;14.88;4.03;;;;;;;-4.29;56.14;100122.97;5080953;28;20056;-86
2022/03/21 10:01:02;;;;;;;39.28;4.00;;;;;;;-4.34;57.57;100125.34;5093028;28;20070;-85
2022/03/21 10:03:35;;;;;;;10.77;3.83;;;;;;;-4.71;56.94;100088.13;5086125;28;20066;-84
2022/03/21 10:06:31;;;;;;;12.82;5.40;;;;;;;-4.57;56.64;100124.38;5089858;28;20111;-85
2022/03/21 10:09:07;;;;;;;7.47;4.55;;;;;;;-4.61;57.15;100132.72;5091726;28;20311;-86
2022/03/21 10:11:40;;;;;;;10.25;3.55;;;;;;;-4.59;56.67;100133.66;5092717;28;20048;-87
2022/03/21 10:14:39;;;;;;;7.38;4.07;;;;;;;-4.60;56.07;100137.00;5095133;28;20344;-87
2022/03/21 10:17:11;;;;;;;7.43;3.78;;;;;;;-4.89;56.13;100103.53;5034016;28;20055;-88
2022/03/21 10:19:46;;;;;;;7.82;2.97;;;;;;;-4.75;56.90;100157.63;5095187;28;20052;-87
2022/03/21 10:22:19;;;;;;;5.55;2.15;;;;;;;-4.83;55.86;100154.75;5092251;28;20094;-82
2022/03/21 10:28:40;;;;;;;10.32;5.90;;;;;;;-5.65;54.88;100167.16;5026349;28;20059;-85
2022/03/21 10:31:11;;;;;;;8.38;5.47;;;;;;;-6.01;56.13;100161.25;5104273;28;20044;-84
2022/03/21 10:33:46;;;;;;;9.27;5.43;;;;;;;-6.20;57.28;100175.59;5101517;28;20040;-88
2022/03/21 10:36:19;;;;;;;10.45;4.90;;;;;;;-6.35;58.39;100175.72;5090850;28;20048;-89
2022/03/21 10:38:52;;;;;;;13.60;4.13;;;;;;;-6.53;59.19;100165.50;5094345;28;20067;-88
2022/03/21 10:42:13;;;;;;;14.38;6.40;;;;;;;-6.86;59.66;100135.84;5084808;28;20108;-89
2022/03/21 10:45:07;;;;;;;9.70;4.45;;;;;;;-6.59;60.18;100185.53;5095876;28;20123;-83
2022/03/21 10:47:50;;;;;;;9.35;3.67;;;;;;;-6.74;60.59;100189.81;5102389;28;20055;-84
2022/03/21 10:50:32;;;;;;;9.98;4.72;;;;;;;-6.98;61.12;100164.91;5093739;28;20351;-83
2022/03/21 10:53:11;;;;;;;10.15;4.13;;;;;;;-6.96;61.40;100193.81;5091242;28;20050;-83
2022/03/21 10:55:43;;;;;;;5.28;2.92;;;;;;;-6.99;62.10;100198.72;5095856;28;20231;-83
2022/03/21 10:58:14;;;;;;;6.68;2.90;;;;;;;-7.04;62.62;100200.16;5103335;28;20248;-86
2022/03/21 11:00:47;;;;;;;4.20;2.78;;;;;;;-7.10;63.07;100189.66;5100345;28;20131;-84
2022/03/21 11:03:18;;;;;;;25.95;6.55;;;;;;;-7.20;63.04;100182.34;5091587;28;20040;-83
2022/03/21 11:05:50;;;;;;;43.65;9.65;;;;;;;-7.45;63.43;100150.56;5095928;28;20111;-84
2022/03/21 11:08:21;;;;;;;57.50;12.82;;;;;;;-7.51;63.53;100137.56;5093226;28;20298;-88
2022/03/21 11:10:52;;;;;;;28.40;9.20;;;;;;;-7.27;63.80;100180.28;5090549;28;20103;-84
2022/03/21 11:13:25;;;;;;;8.05;4.90;;;;;;;-7.63;63.91;100135.25;5091272;28;20052;-86
2022/03/21 11:15:58;;;;;;;7.07;4.70;;;;;;;-7.24;64.05;100190.59;5097570;28;20088;-85
2022/03/21 11:18:29;;;;;;;9.98;5.18;;;;;;;-7.25;64.15;100187.19;5106837;28;20097;-85
2022/03/21 11:21:00;;;;;;;14.85;5.35;;;;;;;-7.32;64.20;100187.63;5088836;28;20516;-83
2022/03/21 11:23:31;;;;;;;30.60;9.73;;;;;;;-7.42;64.22;100185.41;5105742;28;20082;-82
2022/03/21 11:26:09;;;;;;;18.23;7.82;;;;;;;-7.39;64.42;100188.09;5106860;28;20044;-82
2022/03/21 11:29:17;;;;;;;7.25;3.78;;;;;;;-7.40;64.68;100189.75;5099819;28;20056;-83
2022/03/21 11:32:23;;;;;;;3.78;2.95;;;;;;;-7.48;64.82;100191.03;5043944;28;20044;-82
2022/03/21 11:35:03;;;;;;;7.07;3.22;;;;;;;-7.57;64.68;100180.38;5078788;28;20047;-83
2022/03/21 11:37:35;;;;;;;3.95;2.90;;;;;;;-7.60;64.70;100159.91;5090039;28;20044;-83
2022/03/21 11:40:32;;;;;;;4.80;2.42;;;;;;;-7.49;64.71;100184.19;5091827;28;20066;-83
2022/03/21 11:43:29;;;;;;;3.50;2.55;;;;;;;-7.43;64.81;100194.69;5081921;28;20052;-83
2022/03/21 11:46:20;;;;;;;5.68;2.80;;;;;;;-7.34;64.87;100204.44;5087564;28;20048;-83
2022/03/21 11:48:52;;;;;;;6.10;3.28;;;;;;;-7.20;64.90;100215.34;5103663;28;20072;-83
2022/03/21 11:51:25;;;;;;;41.35;13.60;;;;;;;-6.95;65.24;100226.03;5103691;28;20440;-83
2022/03/21 11:53:57;;;;;;;23.45;7.47;;;;;;;-6.79;65.03;100231.91;5099827;28;20106;-82
2022/03/21 11:57:04;;;;;;;13.73;5.10;;;;;;;-6.49;64.74;100231.75;5101088;28;20107;-83
2022/03/21 12:00:04;;;;;;;42.70;12.02;;;;;;;-6.37;64.27;100217.13;5088755;28;20052;-83
2022/03/21 12:03:01;;;;;;;25.63;9.02;;;;;;;-6.15;64.97;100214.84;5085253;28;20396;-83
2022/03/21 12:05:56;;;;;;;26.20;8.40;;;;;;;-5.87;63.94;100211.06;5088330;28;20115;-84
2022/03/21 12:08:48;;;;;;;19.38;7.18;;;;;;;-5.66;63.79;100227.38;5099007;28;20112;-83
2022/03/21 12:12:03;;;;;;;15.48;6.20;;;;;;;-5.43;63.25;100235.25;5101650;28;20048;-83
2022/03/21 12:14:43;;;;;;;18.08;5.53;;;;;;;-5.32;62.85;100241.69;5082910;28;20072;-83
2022/03/21 12:17:38;;;;;;;19.83;7.03;;;;;;;-5.12;63.64;100246.84;5099561;28;20316;-83
2022/03/21 12:20:18;;;;;;;20.52;7.15;;;;;;;-5.09;62.62;100222.41;5092654;28;20304;-83
2022/03/21 12:23:21;;;;;;;6.00;3.40;;;;;;;-5.07;66.26;100189.31;5102915;28;20054;-83
2022/03/21 12:25:53;;;;;;;12.50;4.68;;;;;;;-4.88;66.47;100201.22;5101706;28;20079;-83
2022/03/21 12:29:31;;;;;;;9.93;4.72;;;;;;;-4.59;66.92;100230.56;5096407;28;20052;-83
2022/03/21 12:31:26;;;;;;;7.88;4.05;;;;;;;-4.52;68.35;100217.25;5083662;28;20071;-83
2022/03/21 12:34:29;;;;;;;10.60;5.07;;;;;;;-4.44;69.38;100205.72;5093806;28;20052;-83
2022/03/21 12:37:09;;;;;;;10.52;5.10;;;;;;;-4.46;69.72;100206.47;5083815;28;20066;-83
2022/03/21 12:39:41;;;;;;;8.48;4.85;;;;;;;-4.40;69.97;100206.72;5087453;28;20047;-83
2022/03/21 12:42:19;;;;;;;8.45;4.25;;;;;;;-4.44;70.39;100205.72;5101675;28;20047;-83
2022/03/21 12:44:50;;;;;;;6.07;3.78;;;;;;;-4.47;70.68;100205.56;5092774;28;20071;-83
2022/03/21 12:47:22;;;;;;;7.72;3.38;;;;;;;-4.52;71.09;100194.28;5102656;28;20044;-83
2022/03/21 12:49:55;;;;;;;6.03;3.78;;;;;;;-4.57;70.84;100193.22;5089685;28;20209;-84
2022/03/21 12:52:30;;;;;;;8.23;3.50;;;;;;;-4.55;70.55;100197.59;5084698;28;20044;-83
2022/03/21 12:55:03;;;;;;;5.00;3.35;;;;;;;-4.60;70.59;100193.97;5098527;28;20078;-83
2022/03/21 12:57:33;;;;;;;11.27;4.03;;;;;;;-4.58;71.50;100187.25;5099757;28;20052;-82
2022/03/21 13:00:18;;;;;;;8.10;3.28;;;;;;;-4.57;71.50;100168.63;5092346;28;20107;-85